Aviation Digital Data Service (ADDS)

Output produced by METARs form (1918 UTC 26 September 2021)
found at http://www.aviationweather.gov/metar/data/
 
Forecast for: KRDR (GRAND FORKS AFB , ND, US)
Text: TAF KRDR 261800Z 2618/2724 02012KT 9999 FEW160 QNH2968INS
Forecast period: 1800 UTC 26 September 2021 to 1800 UTC 27 September 2021
Forecast type: FROM: standard forecast or significant change
Winds: from the NNE (20 degrees) at 14 MPH (12 knots; 6.2 m/s)
Visibility: 6 or more miles (10+ km)
Ceiling: at least 12,000 feet AGL
Clouds: few clouds at 16000 feet AGL
Weather: no significant weather forecast for this period
Text: BECMG 2718/2719 16010G15KT 9999 SKC QNH2973INS TX25/2621Z TN10/2712Z
Forecast period: 1800 UTC 27 September 2021 to 0000 UTC 28 September 2021
Forecast type: BECOMING: Conditions expected to become as follows by 1900 UTC 27 September 2021
Winds: from the SSE (160 degrees) at 12 MPH (10 knots; 5.1 m/s)
gusting to 17 MPH (15 knots; 7.7 m/s)
Visibility: 6 or more miles (10+ km)
Clouds: clear skies
Weather: no significant weather forecast for this period